Terminal Aerodrome Forecast
Issued by NWS

Home | Current Version | Previous Version | Text Only | Print | Product List | Glossary On
Versions: 1 2 3 4 5 6 7 8 9 10 11 12 13 14 15
000
FTUS44 KLZK 201700
TAFBPK
TAF
KBPK 201722Z 2018/2118 25005KT P6SM VCSH SCT035 BKN060
     FM202000 30004KT P6SM SCT035 BKN060
     FM210100 VRB03KT P6SM SCT060 SCT250
      TEMPO 2108/2111 4SM BR
     FM211100 VRB02KT 3/4SM BR BKN005
     FM211400 VRB03KT P6SM SKC=

USA.gov is the U.S. government's official web portal to all federal, state and local government web resources and services.